createdAt,value
2022-11-07T14:03:44.621Z,9.13
2022-11-07T14:05:14.886Z,9.11
2022-11-07T14:05:57.314Z,8.98
2022-11-07T14:07:02.063Z,9.00
2022-11-07T14:08:07.241Z,9.04
2022-11-07T14:09:11.591Z,9.06
2022-11-07T14:10:16.651Z,9.05
2022-11-07T14:11:21.523Z,9.07
2022-11-07T14:12:30.032Z,9.03
2022-11-07T14:13:40.924Z,9.06
2022-11-07T14:14:41.440Z,8.88
2022-11-07T14:15:49.853Z,8.88
2022-11-07T14:16:59.092Z,8.85
2022-11-07T14:19:07.370Z,8.80
2022-11-07T14:20:15.989Z,8.90
2022-11-07T14:21:20.957Z,8.82
2022-11-07T14:22:28.211Z,8.78
2022-11-07T14:23:36.605Z,8.89
2022-11-07T14:24:41.691Z,8.83
2022-11-07T14:25:45.108Z,8.92
2022-11-07T14:26:49.657Z,8.87
2022-11-07T14:27:53.162Z,8.84
2022-11-07T14:28:59.316Z,8.78
2022-11-07T14:30:04.898Z,8.86
2022-11-07T14:31:27.698Z,8.82
2022-11-07T14:32:32.772Z,8.83
2022-11-07T14:33:36.485Z,8.79
2022-11-07T14:34:40.723Z,8.76
2022-11-07T14:35:46.316Z,8.80
2022-11-07T14:36:50.123Z,8.80
2022-11-07T14:37:55.520Z,8.73
2022-11-07T14:39:04.779Z,8.74
2022-11-07T14:40:07.545Z,8.75
2022-11-07T14:41:13.857Z,8.77
2022-11-07T14:42:23.432Z,8.70
2022-11-07T14:43:26.520Z,8.81
2022-11-07T14:44:56.357Z,8.84
2022-11-07T14:46:11.490Z,8.86
2022-11-07T14:46:51.752Z,8.86
2022-11-07T14:47:55.475Z,8.90
2022-11-07T14:49:01.794Z,8.85
2022-11-07T14:50:06.453Z,8.90
2022-11-07T14:51:13.508Z,8.84
2022-11-07T14:52:21.536Z,8.79
2022-11-07T14:53:44.856Z,8.69
2022-11-07T14:54:49.824Z,8.63
2022-11-07T14:55:54.468Z,8.59
2022-11-07T14:56:59.130Z,8.45
2022-11-07T14:58:03.784Z,8.50
2022-11-07T14:59:12.609Z,8.56
2022-11-07T15:00:19.506Z,8.73
2022-11-07T15:01:27.387Z,8.81
2022-11-07T15:02:35.296Z,8.89
2022-11-07T15:03:41.040Z,8.79
2022-11-07T15:04:45.774Z,8.80
2022-11-07T15:05:53.217Z,8.75
2022-11-07T15:07:01.395Z,8.75
2022-11-07T15:08:04.574Z,8.80
2022-11-07T15:09:10.694Z,8.88
2022-11-07T15:10:21.980Z,8.88
2022-11-07T15:12:39.591Z,8.78
2022-11-07T15:13:43.519Z,8.63
2022-11-07T15:14:47.957Z,8.65
2022-11-07T15:16:08.776Z,8.77
2022-11-07T15:17:14.290Z,8.81
2022-11-07T15:18:21.555Z,8.62
2022-11-07T15:19:26.246Z,8.77
2022-11-07T15:20:34.312Z,8.74
2022-11-07T15:21:38.591Z,8.83
2022-11-07T15:22:43.370Z,8.91
2022-11-07T15:23:47.634Z,8.88
2022-11-07T15:24:50.373Z,8.98
2022-11-07T15:25:56.186Z,8.99
2022-11-07T15:27:01.410Z,8.92
2022-11-07T15:28:24.633Z,8.88
2022-11-07T15:29:31.155Z,8.91
2022-11-07T15:31:39.339Z,8.78
2022-11-07T15:32:43.143Z,8.89
2022-11-07T15:33:46.334Z,8.97
2022-11-07T15:35:07.773Z,8.97
2022-11-07T15:35:58.267Z,8.98
2022-11-07T15:37:01.979Z,9.01
2022-11-07T15:38:05.264Z,8.92
2022-11-07T15:39:10.451Z,8.88
2022-11-07T15:40:16.511Z,8.74
2022-11-07T15:41:20.060Z,8.86
2022-11-07T15:42:23.359Z,8.96
2022-11-07T15:43:28.012Z,8.92
2022-11-07T15:44:31.422Z,8.98
2022-11-07T15:45:34.766Z,8.88
2022-11-07T15:46:41.150Z,8.88
2022-11-07T15:47:44.541Z,8.99
2022-11-07T15:48:47.939Z,8.99
2022-11-07T15:49:52.341Z,8.98
2022-11-07T15:50:56.422Z,8.99
2022-11-07T15:51:59.289Z,8.99
2022-11-07T15:53:01.540Z,8.97
2022-11-07T15:54:06.203Z,9.02
2022-11-07T15:55:12.325Z,9.03
2022-11-07T15:56:16.964Z,9.01
2022-11-07T15:57:20.585Z,9.03
2022-11-07T15:58:25.239Z,9.03
2022-11-07T15:59:31.565Z,8.84
2022-11-07T16:00:33.816Z,8.84
2022-11-07T16:01:37.635Z,8.92
2022-11-07T16:02:41.019Z,8.94
2022-11-07T16:03:44.633Z,8.99
2022-11-07T16:04:47.412Z,8.99
2022-11-07T16:05:55.819Z,8.96
2022-11-07T16:06:59.116Z,8.88
2022-11-07T16:08:03.326Z,8.87
2022-11-07T16:09:09.166Z,8.88
2022-11-07T16:10:26.447Z,8.97
2022-11-07T16:11:31.349Z,9.02
2022-11-07T16:12:34.619Z,9.02
2022-11-07T16:13:39.778Z,9.07
2022-11-07T16:14:44.932Z,8.77
2022-11-07T16:15:50.348Z,8.84
2022-11-07T16:16:53.746Z,8.97
2022-11-07T16:17:56.934Z,8.95
2022-11-07T16:19:01.194Z,8.82
2022-11-07T16:20:05.454Z,8.89
2022-11-07T16:21:07.764Z,8.93
2022-11-07T16:22:11.375Z,8.95
2022-11-07T16:23:14.301Z,8.87
2022-11-07T16:24:18.986Z,8.97
2022-11-07T16:25:23.993Z,9.01
2022-11-07T16:26:29.047Z,9.05
2022-11-07T16:27:32.594Z,8.99
2022-11-07T16:28:36.283Z,8.90
2022-11-07T16:29:42.925Z,8.94
2022-11-07T16:30:46.097Z,8.93
2022-11-07T16:31:49.429Z,8.98
2022-11-07T16:32:52.794Z,8.93
2022-11-07T16:33:56.205Z,8.96
2022-11-07T16:34:58.770Z,8.91
2022-11-07T16:36:03.530Z,8.85
2022-11-07T16:37:07.033Z,8.89
2022-11-07T16:38:15.902Z,8.90
2022-11-07T16:39:22.503Z,8.93
2022-11-07T16:40:28.816Z,8.93
2022-11-07T16:41:34.257Z,8.96
2022-11-07T16:42:36.990Z,8.96
2022-11-07T16:43:39.549Z,8.91
2022-11-07T16:44:43.310Z,8.94
2022-11-07T16:45:47.398Z,8.99
2022-11-07T16:46:51.207Z,8.96
2022-11-07T16:47:54.409Z,8.88
2022-11-07T16:48:58.424Z,8.79
2022-11-07T16:50:02.986Z,8.87
2022-11-07T16:51:08.051Z,8.87
2022-11-07T16:52:15.530Z,8.83
2022-11-07T16:53:19.970Z,8.88
2022-11-07T16:54:23.163Z,8.86
2022-11-07T16:55:26.495Z,8.73
2022-11-07T16:56:31.629Z,8.77
2022-11-07T16:57:37.576Z,8.77
2022-11-07T16:58:41.355Z,8.79
2022-11-07T16:59:44.755Z,8.87
2022-11-07T17:00:52.166Z,8.88
2022-11-07T17:01:55.440Z,8.91
2022-11-07T17:02:59.099Z,8.86
2022-11-07T17:04:04.252Z,8.85
2022-11-07T17:05:07.746Z,8.89
2022-11-07T17:06:13.735Z,8.85
2022-11-07T17:07:16.820Z,8.81
2022-11-07T17:08:22.310Z,8.87
2022-11-07T17:09:27.601Z,8.85
2022-11-07T17:10:30.888Z,8.69
2022-11-07T17:11:34.286Z,8.74
2022-11-07T17:12:37.480Z,8.70
2022-11-07T17:13:40.972Z,8.66
2022-11-07T17:14:43.776Z,8.70
2022-11-07T17:15:46.635Z,8.72
2022-11-07T17:16:50.244Z,8.75
2022-11-07T17:17:58.984Z,8.77
2022-11-07T17:18:58.651Z,8.79
2022-11-07T17:20:01.793Z,8.79
2022-11-07T17:21:04.359Z,8.76
2022-11-07T17:22:08.398Z,8.76
2022-11-07T17:23:11.683Z,8.65
2022-11-07T17:24:14.978Z,8.63
2022-11-07T17:25:18.795Z,8.58
2022-11-07T17:26:23.775Z,8.61
2022-11-07T17:27:27.383Z,8.49
2022-11-07T17:28:30.566Z,8.27
2022-11-07T17:29:34.079Z,8.23
2022-11-07T17:30:37.904Z,8.15
2022-11-07T17:31:42.650Z,8.27
2022-11-07T17:32:46.162Z,8.37
2022-11-07T17:33:49.878Z,8.41
2022-11-07T17:35:18.157Z,8.50
2022-11-07T17:36:01.367Z,8.48
2022-11-07T17:37:04.777Z,8.47
2022-11-07T17:38:11.547Z,8.44
2022-11-07T17:39:18.033Z,8.46
2022-11-07T17:40:30.123Z,8.54
2022-11-07T17:41:33.629Z,8.37
2022-11-07T17:42:40.522Z,8.34
2022-11-07T17:43:44.350Z,8.37
2022-11-07T17:44:55.114Z,8.28
2022-11-07T17:45:58.577Z,8.12
2022-11-07T17:47:04.708Z,7.98
2022-11-07T17:48:09.173Z,7.93
2022-11-07T17:49:17.494Z,8.06
2022-11-07T17:50:22.461Z,8.05
2022-11-07T17:51:27.211Z,8.02
2022-11-07T17:52:32.263Z,8.01
2022-11-07T17:53:35.685Z,8.08
2022-11-07T17:54:41.070Z,8.06
2022-11-07T17:55:43.320Z,8.05
2022-11-07T17:56:46.721Z,7.97
2022-11-07T17:57:51.991Z,7.94
2022-11-07T17:58:55.229Z,8.03
2022-11-07T17:59:57.561Z,7.96
2022-11-07T18:01:00.940Z,7.94
2022-11-07T18:02:05.448Z,7.95
2022-11-07T18:03:08.884Z,7.95
2022-11-07T18:04:14.286Z,7.89
2022-11-07T18:05:18.846Z,7.92
2022-11-07T18:06:23.974Z,7.86
2022-11-07T18:07:28.504Z,7.79
2022-11-07T18:08:51.165Z,7.78
2022-11-07T18:09:38.484Z,7.82
2022-11-07T18:10:43.033Z,7.75
2022-11-07T18:11:46.547Z,7.77
2022-11-07T18:12:49.730Z,7.80
2022-11-07T18:13:58.570Z,7.61
2022-11-07T18:15:02.181Z,7.67
2022-11-07T18:16:10.315Z,7.52
2022-11-07T18:17:12.639Z,7.54
2022-11-07T18:18:16.044Z,7.60
2022-11-07T18:19:20.066Z,7.48
2022-11-07T18:20:24.198Z,7.57
2022-11-07T18:21:28.854Z,7.56
2022-11-07T18:22:32.356Z,7.50
2022-11-07T18:23:35.328Z,7.37
2022-11-07T18:24:40.726Z,7.43
2022-11-07T18:25:45.097Z,7.41
2022-11-07T18:26:49.918Z,7.49
2022-11-07T18:27:52.275Z,7.52
2022-11-07T18:28:54.953Z,7.52
2022-11-07T18:29:58.252Z,7.36
2022-11-07T18:31:05.817Z,7.47
2022-11-07T18:32:08.281Z,7.36
2022-11-07T18:33:11.375Z,7.36
2022-11-07T18:34:15.605Z,7.39
2022-11-07T18:35:19.221Z,7.54
2022-11-07T18:36:22.934Z,7.59
2022-11-07T18:37:26.858Z,7.56
2022-11-07T18:38:30.361Z,7.48
2022-11-07T18:39:35.746Z,7.49
2022-11-07T18:40:39.346Z,7.45
2022-11-07T18:41:43.688Z,7.51
2022-11-07T18:42:49.089Z,7.47
2022-11-07T18:43:53.841Z,7.45
2022-11-07T18:44:57.554Z,7.43
2022-11-07T18:46:02.319Z,7.40
2022-11-07T18:47:05.702Z,7.37
2022-11-07T18:48:09.000Z,7.28
2022-11-07T18:49:14.534Z,7.32
2022-11-07T18:50:16.844Z,7.28
2022-11-07T18:51:22.138Z,7.27
2022-11-07T18:52:26.258Z,7.20
2022-11-07T18:53:33.046Z,7.17
2022-11-07T18:54:37.377Z,7.19
2022-11-07T18:55:42.480Z,7.17
2022-11-07T18:56:45.927Z,7.19
2022-11-07T18:57:49.223Z,7.03
2022-11-07T18:58:52.729Z,7.08
2022-11-07T18:59:57.163Z,7.17
2022-11-07T19:01:04.059Z,7.22
2022-11-07T19:02:09.037Z,7.01
2022-11-07T19:03:13.369Z,7.01
2022-11-07T19:04:15.788Z,7.02
2022-11-07T19:05:21.036Z,7.00
2022-11-07T19:06:26.606Z,6.99
2022-11-07T19:07:29.229Z,7.08
2022-11-07T19:08:37.805Z,7.05
2022-11-07T19:09:43.058Z,7.06
2022-11-07T19:10:46.522Z,7.06
2022-11-07T19:11:51.009Z,6.96
2022-11-07T19:12:54.994Z,6.95
2022-11-07T19:13:59.962Z,6.93
2022-11-07T19:15:02.751Z,6.84
2022-11-07T19:16:05.717Z,6.98
2022-11-07T19:17:09.027Z,7.12
2022-11-07T19:18:13.749Z,7.17
2022-11-07T19:19:17.173Z,7.12
2022-11-07T19:20:21.031Z,7.12
2022-11-07T19:21:24.505Z,7.14
2022-11-07T19:22:29.019Z,7.14
2022-11-07T19:23:36.298Z,7.07
2022-11-07T19:24:40.997Z,7.02
2022-11-07T19:25:44.364Z,6.99
2022-11-07T19:26:49.510Z,6.97
2022-11-07T19:27:53.045Z,6.99
2022-11-07T19:28:57.700Z,6.97
2022-11-07T19:30:01.371Z,6.95
2022-11-07T19:31:05.975Z,6.99
2022-11-07T19:32:10.000Z,6.95
2022-11-07T19:33:12.253Z,6.83
2022-11-07T19:34:19.823Z,6.93
2022-11-07T19:35:24.513Z,6.88
2022-11-07T19:36:27.773Z,6.95
2022-11-07T19:37:30.055Z,6.84
2022-11-07T19:38:33.957Z,6.96
2022-11-07T19:39:36.629Z,6.80
2022-11-07T19:40:41.999Z,6.79
2022-11-07T19:41:45.387Z,6.85
2022-11-07T19:42:48.743Z,6.84
2022-11-07T19:43:51.889Z,6.85
2022-11-07T19:44:56.668Z,6.99
2022-11-07T19:46:00.675Z,6.93
2022-11-07T19:47:03.551Z,6.96
2022-11-07T19:48:08.822Z,6.94
2022-11-07T19:49:12.138Z,6.96
2022-11-07T19:50:16.155Z,6.96
2022-11-07T19:51:21.966Z,6.94
2022-11-07T19:52:25.566Z,6.95
2022-11-07T19:53:28.874Z,6.79
2022-11-07T19:54:31.115Z,6.81
2022-11-07T19:55:35.456Z,6.84
2022-11-07T19:56:42.105Z,6.79
2022-11-07T19:57:45.434Z,6.52
2022-11-07T19:58:49.114Z,6.48
2022-11-07T19:59:52.829Z,6.50
2022-11-07T20:00:58.768Z,6.70
2022-11-07T20:02:31.240Z,6.71
2022-11-07T20:03:08.011Z,6.57
2022-11-07T20:04:11.329Z,6.55
2022-11-07T20:05:16.516Z,6.64
2022-11-07T20:06:21.803Z,6.63
2022-11-07T20:07:25.186Z,6.64
2022-11-07T20:08:30.170Z,6.69
2022-11-07T20:09:33.390Z,6.67
2022-11-07T20:10:36.953Z,6.60
